Auburn, NY (13021)

12:59 AM EDT on August 05, 2015 (GMT -0400)
Pinfeather Place Fleming, NY | | Change Station
CLOSE
Current Station
Personal Weather Station
Location: Auburn, NY
Elevation: 741 ft
Nearby Weather Stations

Elev 741 ft 42.87 °N, 76.54 °W | Updated 21 seconds ago

Overcast
Overcast
64.6 °F
Feels Like 64.6 °F
N
1.1
Wind Variable Wind from SW
Gusts 2.5 mph

Today
High -- | Low -- °F
--% Chance of Precip.
Yesterday
High -- | Low -- °F
Precip. -- in
6:01 AM 8:22 PM
Waning Gibbous, 71% visible
Pressure 29.89 in
Visibility 10.0 miles
Clouds Few 5500 ft
Scattered Clouds 7500 ft
Mostly Cloudy 11000 ft
Mostly Cloudy 13000 ft
Dew Point 63 °F
Humidity 93%
Rainfall 0.00 in
Snow Depth Not available.
UV 0.0 out of 12
Pollen 7.00 out of 12
Air Quality Not available.
Flu Activity Not available.
METAR KSYR 050354Z 00000KT 10SM FEW055 SCT075 BKN110 BKN130 18/17 A2991 RMK AO2 RAB03E34 SLP122 SCT V BKN P0003 T01780167 $

More Conditions Fewer Conditions

Pressure 29.89 in
Visibility 10.0 miles
Clouds Few 5500 ft
Scattered Clouds 7500 ft
Mostly Cloudy 11000 ft
Mostly Cloudy 13000 ft
Dew Point 63 °F
Humidity 93%
Rainfall 0.00 in
Snow Depth Not available.
UV 0.0 out of 12
Pollen 7.00 out of 12
Air Quality Not available.
Flu Activity Not available.
METAR KSYR 050354Z 00000KT 10SM FEW055 SCT075 BKN110 BKN130 18/17 A2991 RMK AO2 RAB03E34 SLP122 SCT V BKN P0003 T01780167 $

More Conditions Fewer Conditions

10-Day Weather Forecast

×

Almanac

Astronomy

Aug. 05, 2015 Rise Set
Actual Time
Civil Twilight
Nautical Twilight
Astronomical Twilight
Moon
Length of Visible Light
Length of Day
Tomorrow will be .
, % of the Moon is Illuminated

Today's Extremes

State Highs State Lows

Community

WunderPhotos

Upload Photos

1,844,094 photos uploaded!

WunderBlogs® & News

Nearby

Air Quality

  Air Quality AQ Index Pollutant
Not available.

Snow Depth

Station Depth Elevation

Earthquake Activity

City Distance Mag. Time & Date
Minimum magnitude displayed is 2.5.

Coastal Water Temperatures

Place Temperature

Stations

Nearby Weather Stations

Station Location Temp. Windchill Dew Point Humidity Wind Precip. Elev Updated Type